createdAt,value
2023-05-21T00:02:32.267Z,100332.38
2023-05-21T00:05:21.007Z,100329.59
2023-05-21T00:08:08.109Z,100332.44
2023-05-21T00:10:55.153Z,100327.56
2023-05-21T00:13:35.029Z,100329.41
2023-05-21T00:16:15.775Z,100325.44
2023-05-21T00:19:05.117Z,100319.03
2023-05-21T00:21:53.048Z,100325.38
2023-05-21T00:24:40.000Z,100319.44
2023-05-21T00:27:27.035Z,100320.16
2023-05-21T00:30:14.036Z,100317.66
2023-05-21T00:33:01.149Z,100318.69
2023-05-21T00:35:47.945Z,100314.97
2023-05-21T00:38:34.969Z,100322.47
2023-05-21T00:41:15.088Z,100315.59
2023-05-21T00:44:03.024Z,100315.91
2023-05-21T00:47:00.002Z,100317.28
2023-05-21T00:49:41.294Z,100311.78
2023-05-21T00:52:29.900Z,100307.00
2023-05-21T00:55:17.986Z,100308.34
2023-05-21T00:57:58.088Z,100306.78
2023-05-21T01:00:46.956Z,100320.44
2023-05-21T01:03:27.225Z,100313.69
2023-05-21T01:06:14.881Z,100302.66
2023-05-21T01:09:04.421Z,100302.69
2023-05-21T01:11:49.610Z,100295.59
2023-05-21T01:14:37.906Z,100292.72
2023-05-21T01:17:25.994Z,100287.66
2023-05-21T01:20:16.888Z,100288.09
2023-05-21T01:23:03.911Z,100292.09
2023-05-21T01:25:44.005Z,100290.63
2023-05-21T01:28:30.884Z,100290.28
2023-05-21T01:31:26.947Z,100284.66
2023-05-21T01:34:11.750Z,100276.72
2023-05-21T01:37:07.881Z,100286.59
2023-05-21T01:39:54.624Z,100269.84
2023-05-21T01:42:45.919Z,100277.84
2023-05-21T01:45:34.112Z,100268.31
2023-05-21T01:48:17.504Z,100265.06
2023-05-21T01:51:07.929Z,100265.53
2023-05-21T01:53:47.981Z,100262.72
2023-05-21T01:56:34.904Z,100248.38
2023-05-21T01:59:21.939Z,100255.94
2023-05-21T02:02:02.481Z,100249.47
2023-05-21T02:04:48.880Z,100253.00
2023-05-21T02:07:38.864Z,100233.84
2023-05-21T02:10:19.110Z,100235.38
2023-05-21T02:13:05.919Z,100244.94
2023-05-21T02:15:46.045Z,100243.72
2023-05-21T02:18:32.865Z,100247.38
2023-05-21T02:21:19.893Z,100242.22
2023-05-21T02:24:00.280Z,100246.19
2023-05-21T02:26:46.862Z,100244.91
2023-05-21T02:29:27.302Z,100241.59
2023-05-21T02:32:14.854Z,100239.88
2023-05-21T02:34:55.305Z,100237.84
2023-05-21T02:37:41.910Z,100239.03
2023-05-21T02:40:28.927Z,100232.56
2023-05-21T02:43:16.246Z,100236.16
2023-05-21T02:46:09.992Z,100231.75
2023-05-21T02:49:03.846Z,100235.22
2023-05-21T02:51:51.896Z,100246.38
2023-05-21T02:54:31.932Z,100232.50
2023-05-21T02:57:18.801Z,100239.75
2023-05-21T02:59:58.971Z,100235.78
2023-05-21T03:02:45.874Z,100237.38
2023-05-21T03:05:26.961Z,100237.38
2023-05-21T03:08:13.861Z,100237.91
2023-05-21T03:10:54.013Z,100239.22
2023-05-21T03:13:40.900Z,100237.34
2023-05-21T03:16:22.658Z,100243.38
2023-05-21T03:19:09.864Z,100225.22
2023-05-21T03:21:50.890Z,100230.47
2023-05-21T03:24:38.866Z,100238.03
2023-05-21T03:27:26.748Z,100234.88
2023-05-21T03:30:16.913Z,100238.13
2023-05-21T03:33:17.832Z,100247.75
2023-05-21T03:35:58.189Z,100250.22
2023-05-21T03:38:48.891Z,100236.28
2023-05-21T03:41:35.795Z,100247.22
2023-05-21T03:44:36.845Z,100243.06
2023-05-21T03:47:42.853Z,100240.97
2023-05-21T03:50:22.961Z,100245.13
2023-05-21T03:53:09.841Z,100249.34
2023-05-21T03:55:55.272Z,100237.16
2023-05-21T03:58:41.781Z,100248.59
2023-05-21T04:01:22.221Z,100246.72
2023-05-21T04:04:08.887Z,100244.56
2023-05-21T04:06:56.876Z,100253.06
2023-05-21T04:09:43.725Z,100227.56
2023-05-21T04:12:23.898Z,100236.38
2023-05-21T04:15:10.769Z,100240.84
2023-05-21T04:17:52.625Z,100243.28
2023-05-21T04:20:39.698Z,100236.97
2023-05-21T04:23:19.919Z,100233.91
2023-05-21T04:26:09.808Z,100240.03
2023-05-21T04:28:56.678Z,100246.47
2023-05-21T04:31:37.468Z,100240.84
2023-05-21T04:34:27.797Z,100247.72
2023-05-21T04:37:15.716Z,100239.75
2023-05-21T04:40:02.812Z,100233.31
2023-05-21T04:42:44.010Z,100227.78
2023-05-21T04:45:33.935Z,100241.03
2023-05-21T04:48:20.902Z,100241.41
2023-05-21T04:51:02.707Z,100246.63
2023-05-21T04:53:49.725Z,100248.53
2023-05-21T04:56:32.045Z,100255.34
2023-05-21T04:59:18.699Z,100255.97
2023-05-21T05:01:58.853Z,100250.50
2023-05-21T05:04:45.735Z,100251.09
2023-05-21T05:07:25.792Z,100262.00
2023-05-21T05:10:12.734Z,100257.88
2023-05-21T05:12:59.698Z,100256.50
2023-05-21T05:15:40.005Z,100260.56
2023-05-21T05:18:26.690Z,100257.84
2023-05-21T05:21:07.039Z,100259.03
2023-05-21T05:23:53.636Z,100257.47
2023-05-21T05:26:43.643Z,100262.09
2023-05-21T05:29:30.657Z,100249.31
2023-05-21T05:32:17.664Z,100256.13
2023-05-21T05:35:04.695Z,100262.03
2023-05-21T05:37:51.641Z,100254.78
2023-05-21T05:40:38.604Z,100249.66
2023-05-21T05:43:19.001Z,100251.31
2023-05-21T05:46:06.695Z,100242.06
2023-05-21T05:48:53.686Z,100261.69
2023-05-21T05:51:33.846Z,100255.25
2023-05-21T05:54:20.675Z,100257.94
2023-05-21T05:57:00.911Z,100259.63
2023-05-21T05:59:48.604Z,100252.47
2023-05-21T06:02:31.006Z,100256.00
2023-05-21T06:05:17.804Z,100243.75
2023-05-21T06:08:04.663Z,100250.34
2023-05-21T06:10:45.297Z,100255.16
2023-05-21T06:13:32.615Z,100251.41
2023-05-21T06:16:13.172Z,100257.00
2023-05-21T06:19:00.694Z,100249.97
2023-05-21T06:21:47.697Z,100251.09
2023-05-21T06:24:27.691Z,100240.84
2023-05-21T06:27:15.795Z,100249.28
2023-05-21T06:30:03.661Z,100252.97
2023-05-21T06:32:44.417Z,100250.25
2023-05-21T06:35:31.646Z,100244.50
2023-05-21T06:38:18.919Z,100247.09
2023-05-21T06:41:05.619Z,100246.53
2023-05-21T06:43:55.157Z,100245.22
2023-05-21T06:46:50.601Z,100228.34
2023-05-21T06:49:32.538Z,100234.13
2023-05-21T06:52:22.207Z,100230.91
2023-05-21T06:55:03.153Z,100241.47
2023-05-21T06:58:08.603Z,100226.72
2023-05-21T07:00:49.430Z,100240.50
2023-05-21T07:03:36.619Z,100240.41
2023-05-21T07:06:17.066Z,100241.28
2023-05-21T07:09:03.548Z,100237.97
2023-05-21T07:11:44.494Z,100237.22
2023-05-21T07:14:31.677Z,100239.53
2023-05-21T07:17:18.595Z,100225.63
2023-05-21T07:19:58.768Z,100228.97
2023-05-21T07:22:46.548Z,100224.34
2023-05-21T07:25:26.659Z,100247.16
2023-05-21T07:28:13.677Z,100214.53
2023-05-21T07:45:37.445Z,100243.63
2023-05-21T07:48:25.220Z,100235.53
2023-05-21T07:51:08.388Z,100235.94
2023-05-21T07:53:55.527Z,100237.69
2023-05-21T07:56:40.281Z,100241.56
2023-05-21T07:59:40.291Z,100236.03
2023-05-21T08:02:20.605Z,100231.56
2023-05-21T08:05:08.215Z,100244.41
2023-05-21T08:07:49.387Z,100250.16
2023-05-21T08:10:36.248Z,100249.88
2023-05-21T08:13:18.389Z,100252.09
2023-05-21T08:16:05.233Z,100252.03
2023-05-21T08:18:52.209Z,100259.16
2023-05-21T08:21:39.245Z,100263.25
2023-05-21T08:24:19.300Z,100246.59
2023-05-21T08:27:06.165Z,100236.28
2023-05-21T08:29:53.181Z,100254.81
2023-05-21T08:32:33.606Z,100255.63
2023-05-21T08:35:21.188Z,100256.56
2023-05-21T08:38:18.131Z,100257.53
2023-05-21T08:41:31.299Z,100263.06
2023-05-21T08:44:20.160Z,100262.19
2023-05-21T08:47:02.234Z,100260.97
2023-05-21T08:49:50.114Z,100261.22
2023-05-21T08:52:38.161Z,100265.53
2023-05-21T08:55:25.148Z,100265.88
2023-05-21T08:58:05.350Z,100268.59
2023-05-21T09:00:52.197Z,100267.38
2023-05-21T09:03:46.252Z,100280.56
2023-05-21T09:06:34.128Z,100271.69
2023-05-21T09:09:37.234Z,100279.38
2023-05-21T09:12:24.187Z,100280.00
2023-05-21T09:15:07.275Z,100289.38
2023-05-21T09:17:55.182Z,100291.63
2023-05-21T09:21:03.183Z,100284.94
2023-05-21T09:23:51.256Z,100295.97
2023-05-21T09:26:32.097Z,100294.91
2023-05-21T09:29:20.047Z,100294.91
2023-05-21T09:32:00.266Z,100290.88
2023-05-21T09:34:48.156Z,100292.91
2023-05-21T09:37:28.248Z,100294.00
2023-05-21T09:40:30.138Z,100292.53
2023-05-21T09:43:11.238Z,100291.78
2023-05-21T09:46:01.325Z,100296.41
2023-05-21T09:48:48.237Z,100286.69
2023-05-21T09:51:35.095Z,100284.72
2023-05-21T09:54:25.159Z,100291.13
2023-05-21T09:57:05.672Z,100291.13
2023-05-21T09:59:53.108Z,100290.78
2023-05-21T10:02:46.135Z,100286.94
2023-05-21T10:05:35.092Z,100295.72
2023-05-21T10:08:23.250Z,100286.56
2023-05-21T10:11:11.098Z,100287.94
2023-05-21T10:14:02.133Z,100287.69
2023-05-21T10:16:50.237Z,100282.91
2023-05-21T10:19:33.013Z,100279.69
2023-05-21T10:22:20.078Z,100286.28
2023-05-21T10:25:10.104Z,100289.66
2023-05-21T10:27:51.121Z,100299.00
2023-05-21T10:30:38.420Z,100294.88
2023-05-21T10:33:22.704Z,100289.88
2023-05-21T10:36:10.066Z,100292.34
2023-05-21T10:38:51.908Z,100292.59
2023-05-21T10:42:02.101Z,100294.06
2023-05-21T10:45:24.048Z,100286.84
2023-05-21T10:48:36.230Z,100306.75
2023-05-21T10:51:41.155Z,100312.78
2023-05-21T10:54:48.038Z,100300.66
2023-05-21T10:57:31.468Z,100310.06
2023-05-21T11:00:20.203Z,100305.13
2023-05-21T11:03:08.093Z,100304.53
2023-05-21T11:05:54.865Z,100299.59
2023-05-21T11:08:45.065Z,100312.88
2023-05-21T11:11:50.968Z,100301.69
2023-05-21T11:14:49.064Z,100302.59
2023-05-21T11:17:50.305Z,100300.63
2023-05-21T11:20:46.989Z,100295.91
2023-05-21T11:24:04.050Z,100294.69
2023-05-21T11:26:58.630Z,100286.56
2023-05-21T11:29:51.060Z,100284.44
2023-05-21T11:32:38.035Z,100293.50
2023-05-21T11:35:22.689Z,100285.72
2023-05-21T11:38:09.990Z,100286.81
2023-05-21T11:40:55.068Z,100285.66
2023-05-21T11:43:42.028Z,100281.63
2023-05-21T11:46:22.362Z,100280.59
2023-05-21T11:49:10.067Z,100284.13
2023-05-21T11:51:50.561Z,100293.53
2023-05-21T11:54:41.197Z,100277.63
2023-05-21T11:57:22.553Z,100280.25
2023-05-21T12:00:08.943Z,100287.84
2023-05-21T12:02:52.500Z,100283.22
2023-05-21T12:05:38.961Z,100277.53
2023-05-21T12:08:27.198Z,100287.00
2023-05-21T12:11:14.922Z,100284.19
2023-05-21T12:13:55.554Z,100286.69
2023-05-21T12:16:41.952Z,100282.66
2023-05-21T12:19:29.053Z,100285.84
2023-05-21T12:22:10.141Z,100283.22
2023-05-21T12:24:57.974Z,100275.16
2023-05-21T12:27:44.982Z,100276.78
2023-05-21T12:30:26.557Z,100286.69
2023-05-21T12:33:14.038Z,100282.47
2023-05-21T12:35:56.241Z,100276.81
2023-05-21T12:38:45.954Z,100279.97
2023-05-21T12:41:26.806Z,100275.63
2023-05-21T12:44:14.942Z,100268.00
2023-05-21T12:46:55.461Z,100275.00
2023-05-21T12:49:56.910Z,100278.28
2023-05-21T12:52:37.348Z,100267.31
2023-05-21T12:55:26.941Z,100256.22
2023-05-21T12:58:08.810Z,100263.53
2023-05-21T13:00:55.921Z,100252.16
2023-05-21T13:03:37.893Z,100253.66
2023-05-21T13:06:26.061Z,100250.47
2023-05-21T13:09:13.023Z,100249.03
2023-05-21T13:11:53.066Z,100252.69
2023-05-21T13:14:39.902Z,100256.69
2023-05-21T13:17:20.126Z,100254.09
2023-05-21T13:20:19.883Z,100260.41
2023-05-21T13:23:00.545Z,100256.88
2023-05-21T13:25:48.903Z,100250.69
2023-05-21T13:28:29.389Z,100254.63
2023-05-21T13:31:16.877Z,100259.03
2023-05-21T13:34:05.572Z,100252.41
2023-05-21T13:36:46.366Z,100250.97
2023-05-21T13:39:33.930Z,100251.16
2023-05-21T13:42:20.848Z,100246.84
2023-05-21T13:45:07.978Z,100248.53
2023-05-21T13:47:48.930Z,100247.50
2023-05-21T13:50:29.293Z,100246.75
2023-05-21T13:53:16.027Z,100239.94
2023-05-21T13:55:56.277Z,100248.59
2023-05-21T13:58:42.938Z,100236.03
2023-05-21T14:01:30.123Z,100238.53
2023-05-21T14:04:11.902Z,100234.50
2023-05-21T14:06:52.589Z,100229.72
2023-05-21T14:09:39.833Z,100235.75
2023-05-21T14:12:20.813Z,100237.91
2023-05-21T14:15:07.867Z,100229.50
2023-05-21T14:17:48.373Z,100227.88
2023-05-21T14:20:34.868Z,100235.19
2023-05-21T14:23:21.787Z,100226.56
2023-05-21T14:26:02.005Z,100224.09
2023-05-21T14:28:49.800Z,100234.25
2023-05-21T14:31:29.935Z,100230.56
2023-05-21T14:34:16.872Z,100219.00
2023-05-21T14:36:56.967Z,100218.56
2023-05-21T14:39:43.844Z,100217.34
2023-05-21T14:42:24.172Z,100215.75
2023-05-21T14:45:18.731Z,100211.72
2023-05-21T14:47:58.923Z,100209.28
2023-05-21T14:50:45.820Z,100214.16
2023-05-21T14:53:26.011Z,100215.78
2023-05-21T14:56:13.848Z,100204.56
2023-05-21T14:58:53.894Z,100218.25
2023-05-21T15:01:40.800Z,100205.75
2023-05-21T15:04:20.852Z,100209.81
2023-05-21T15:07:07.759Z,100207.38
2023-05-21T15:09:54.779Z,100208.69
2023-05-21T15:12:41.911Z,100177.75
2023-05-21T15:15:23.753Z,100208.28
2023-05-21T15:18:04.245Z,100204.69
2023-05-21T15:20:50.783Z,100207.94
2023-05-21T15:23:37.757Z,100193.50
2023-05-21T15:26:17.942Z,100196.69
2023-05-21T15:29:04.724Z,100192.38
2023-05-21T15:31:51.764Z,100198.41
2023-05-21T15:34:32.911Z,100205.25
2023-05-21T15:37:21.782Z,100204.47
2023-05-21T15:40:08.712Z,100198.09
2023-05-21T15:42:48.808Z,100203.66
2023-05-21T15:45:35.975Z,100212.50
2023-05-21T15:48:20.008Z,100199.66
2023-05-21T15:51:06.705Z,100203.28
2023-05-21T15:53:46.820Z,100195.69
2023-05-21T15:56:33.738Z,100204.50
2023-05-21T15:59:13.778Z,100197.28
2023-05-21T16:02:02.664Z,100201.31
2023-05-21T16:04:42.797Z,100208.94
2023-05-21T16:07:30.728Z,100198.53
2023-05-21T16:10:10.834Z,100196.53
2023-05-21T16:12:57.682Z,100200.53
2023-05-21T16:15:38.125Z,100197.31
2023-05-21T16:18:24.680Z,100200.13
2023-05-21T16:21:04.831Z,100187.72
2023-05-21T16:23:51.673Z,100192.50
2023-05-21T16:26:38.708Z,100193.72
2023-05-21T16:29:25.732Z,100203.34
2023-05-21T16:32:05.869Z,100202.94
2023-05-21T16:34:52.734Z,100200.94
2023-05-21T16:37:34.574Z,100196.53
2023-05-21T16:40:21.656Z,100184.91
2023-05-21T16:43:08.640Z,100199.34
2023-05-21T16:45:56.004Z,100195.75
2023-05-21T16:48:37.989Z,100200.09
2023-05-21T16:51:24.659Z,100194.88
2023-05-21T16:54:05.501Z,100189.25
2023-05-21T16:56:52.686Z,100199.25
2023-05-21T16:59:32.740Z,100190.41
2023-05-21T17:02:20.809Z,100185.16
2023-05-21T17:05:00.749Z,100183.13
2023-05-21T17:07:47.645Z,100193.13
2023-05-21T17:10:27.857Z,100194.69
2023-05-21T17:13:22.102Z,100187.03
2023-05-21T17:16:02.746Z,100186.97
2023-05-21T17:18:49.607Z,100208.13
2023-05-21T17:21:29.762Z,100192.84
2023-05-21T17:24:16.605Z,100201.25
2023-05-21T17:26:56.784Z,100190.44
2023-05-21T17:29:43.647Z,100211.22
2023-05-21T17:32:23.670Z,100205.63
2023-05-21T17:35:10.618Z,100206.84
2023-05-21T17:37:50.749Z,100212.44
2023-05-21T17:40:37.629Z,100215.59
2023-05-21T17:43:24.601Z,100232.03
2023-05-21T17:46:20.641Z,100233.59
2023-05-21T17:49:02.506Z,100232.38
2023-05-21T17:51:50.548Z,100239.19
2023-05-21T17:54:31.547Z,100244.03
2023-05-21T17:57:18.533Z,100242.41
2023-05-21T18:00:05.561Z,100248.78
2023-05-21T18:02:45.722Z,100243.94
2023-05-21T18:05:32.588Z,100247.97
2023-05-21T18:08:19.579Z,100243.94
2023-05-21T18:11:08.593Z,100247.09
2023-05-21T18:13:48.718Z,100247.50
2023-05-21T18:16:37.619Z,100260.69
2023-05-21T18:19:24.664Z,100262.72
2023-05-21T18:22:11.670Z,100265.13
2023-05-21T18:24:51.535Z,100273.09
2023-05-21T18:27:38.699Z,100258.28
2023-05-21T18:30:19.571Z,100273.88
2023-05-21T18:33:06.601Z,100277.06
2023-05-21T18:35:57.694Z,100278.28
2023-05-21T18:38:44.550Z,100275.44
2023-05-21T18:41:24.896Z,100281.44
2023-05-21T18:44:12.561Z,100289.06
2023-05-21T18:46:59.796Z,100283.41
2023-05-21T18:49:41.634Z,100284.63
2023-05-21T18:52:22.037Z,100289.47
2023-05-21T18:55:08.534Z,100292.34
2023-05-21T18:57:49.102Z,100284.31
2023-05-21T19:00:35.739Z,100287.09
2023-05-21T19:03:16.502Z,100287.88
2023-05-21T19:06:03.486Z,100285.91
2023-05-21T19:08:52.514Z,100290.97
2023-05-21T19:11:40.518Z,100293.78
2023-05-21T19:14:21.207Z,100288.94
2023-05-21T19:17:08.582Z,100286.59
2023-05-21T19:19:54.301Z,100294.91
2023-05-21T19:22:43.533Z,100302.06
2023-05-21T19:25:24.315Z,100294.53
2023-05-21T19:28:11.530Z,100298.56
2023-05-21T19:30:51.950Z,100292.59
2023-05-21T19:46:47.857Z,100298.75
2023-05-21T19:49:28.418Z,100301.63
2023-05-21T19:52:14.881Z,100287.75
2023-05-21T19:54:55.223Z,100298.25
2023-05-21T19:57:41.874Z,100305.53
2023-05-21T20:00:22.438Z,100310.41
2023-05-21T20:03:10.710Z,100307.97
2023-05-21T20:05:55.364Z,100306.41
2023-05-21T20:08:42.839Z,100314.41
2023-05-21T20:11:23.602Z,100315.66
2023-05-21T20:14:10.751Z,100312.47
2023-05-21T20:16:59.836Z,100315.28
2023-05-21T20:19:40.858Z,100311.69
2023-05-21T20:22:27.834Z,100298.47
2023-05-21T20:25:15.843Z,100308.50
2023-05-21T20:28:05.758Z,100306.88
2023-05-21T20:31:06.829Z,100300.88
2023-05-21T20:33:50.710Z,100296.03
2023-05-21T20:36:40.718Z,100305.25
2023-05-21T20:39:29.766Z,100299.69
2023-05-21T20:42:12.145Z,100308.88
2023-05-21T20:44:59.766Z,100288.94
2023-05-21T20:47:39.969Z,100285.34
2023-05-21T20:50:32.807Z,100287.00
2023-05-21T20:53:15.753Z,100290.53
2023-05-21T20:56:02.767Z,100290.53
2023-05-21T20:58:45.565Z,100284.91
2023-05-21T21:01:36.855Z,100292.97
2023-05-21T21:04:17.879Z,100287.75
2023-05-21T21:07:06.710Z,100291.34
2023-05-21T21:09:49.009Z,100297.00
2023-05-21T21:12:38.262Z,100295.38
2023-05-21T21:15:17.902Z,100288.53
2023-05-21T21:18:04.830Z,100292.97
2023-05-21T21:20:49.920Z,100292.44
2023-05-21T21:23:36.709Z,100291.19
2023-05-21T21:26:17.883Z,100293.97
2023-05-21T21:29:05.710Z,100283.06
2023-05-21T21:31:47.551Z,100295.78
2023-05-21T21:34:34.732Z,100296.16
2023-05-21T21:37:16.331Z,100297.72
2023-05-21T21:40:03.724Z,100290.88
2023-05-21T21:42:43.951Z,100290.75
2023-05-21T21:45:30.742Z,100293.94
2023-05-21T21:48:11.653Z,100293.44
2023-05-21T21:50:58.806Z,100277.78
2023-05-21T21:53:38.822Z,100288.88
2023-05-21T21:56:25.650Z,100286.06
2023-05-21T21:59:06.013Z,100278.78
2023-05-21T22:01:52.690Z,100285.56
2023-05-21T22:04:39.742Z,100291.91
2023-05-21T22:07:20.828Z,100289.00
2023-05-21T22:10:07.657Z,100291.81
2023-05-21T22:12:54.774Z,100285.47
2023-05-21T22:15:34.877Z,100296.28
2023-05-21T22:18:38.833Z,100303.31
2023-05-21T22:21:21.439Z,100305.19
2023-05-21T22:24:14.918Z,100306.66
2023-05-21T22:27:07.656Z,100307.00
2023-05-21T22:29:48.045Z,100310.47
2023-05-21T22:32:34.688Z,100304.34
2023-05-21T22:35:15.195Z,100309.53
2023-05-21T22:38:02.640Z,100295.06
2023-05-21T22:40:49.577Z,100297.72
2023-05-21T22:43:36.652Z,100295.28
2023-05-21T22:46:23.752Z,100292.50
2023-05-21T22:49:03.644Z,100293.22
2023-05-21T22:51:45.098Z,100287.19
2023-05-21T22:54:31.665Z,100280.78
2023-05-21T22:57:18.619Z,100277.59
2023-05-21T23:00:05.612Z,100279.19
2023-05-21T23:02:52.229Z,100284.03
2023-05-21T23:05:40.802Z,100277.28
2023-05-21T23:08:21.137Z,100289.16
2023-05-21T23:11:07.673Z,100295.50
2023-05-21T23:13:54.746Z,100299.09
2023-05-21T23:16:37.791Z,100305.91
2023-05-21T23:19:18.043Z,100307.88
2023-05-21T23:22:04.513Z,100302.50
2023-05-21T23:24:51.655Z,100302.16
2023-05-21T23:27:31.729Z,100288.34
2023-05-21T23:30:18.613Z,100302.59
2023-05-21T23:33:05.628Z,100298.38
2023-05-21T23:35:52.644Z,100301.75
2023-05-21T23:38:32.640Z,100309.09
2023-05-21T23:41:20.510Z,100314.09
2023-05-21T23:44:00.657Z,100304.09
2023-05-21T23:46:48.620Z,100301.59
2023-05-21T23:49:28.608Z,100301.94
2023-05-21T23:52:15.908Z,100298.66
2023-05-21T23:54:55.644Z,100299.03
2023-05-21T23:57:42.593Z,100297.66
